createdAt,value
2019-04-14T09:24:45.929Z,99.90
2019-04-14T09:29:37.581Z,57.50
2019-04-14T09:34:29.441Z,56.70
2019-04-14T09:39:21.681Z,55.00
2019-04-14T09:44:13.426Z,53.00
2019-04-14T09:49:05.695Z,53.10
2019-04-14T09:53:58.022Z,52.20
2019-04-14T09:58:50.494Z,52.10
2019-04-14T10:03:43.277Z,51.20
2019-04-14T10:08:35.727Z,50.10
2019-04-14T10:13:29.754Z,48.20
2019-04-14T10:18:21.290Z,47.40
2019-04-14T10:23:13.526Z,48.40
2019-04-14T10:28:05.463Z,47.50
2019-04-14T10:32:57.768Z,47.80
2019-04-14T10:37:50.328Z,46.90
2019-04-14T10:42:42.422Z,46.40
2019-04-14T10:47:34.777Z,45.60
2019-04-14T10:52:27.472Z,45.00
2019-04-14T10:57:20.101Z,44.30
2019-04-14T11:02:12.609Z,44.00
2019-04-14T11:07:04.717Z,42.40
2019-04-14T11:11:57.079Z,42.90
2019-04-14T11:16:49.510Z,42.90
2019-04-14T11:21:44.189Z,42.70
2019-04-14T11:26:35.991Z,42.00
2019-04-14T11:31:28.250Z,41.60
2019-04-14T11:36:20.649Z,40.60
2019-04-14T11:41:12.527Z,40.40
2019-04-14T11:46:05.485Z,40.60
2019-04-14T11:50:57.733Z,41.80
2019-04-14T11:55:50.676Z,41.30
2019-04-14T12:00:43.227Z,39.90
2019-04-14T12:05:35.786Z,39.20
2019-04-14T12:10:28.163Z,37.40
2019-04-14T12:15:20.560Z,36.70
2019-04-14T12:20:12.810Z,36.20
2019-04-14T12:25:04.995Z,35.60
2019-04-14T12:29:59.300Z,36.40
2019-04-14T12:34:52.087Z,35.80
2019-04-14T12:39:44.148Z,36.00
2019-04-14T12:44:36.301Z,37.00
2019-04-14T12:49:28.561Z,35.80
2019-04-14T12:54:20.696Z,36.40
2019-04-14T12:59:12.972Z,36.90
2019-04-14T13:04:05.060Z,36.80
2019-04-14T13:08:57.892Z,36.90
2019-04-14T13:13:50.357Z,36.90
2019-04-14T13:18:43.024Z,36.90
2019-04-14T13:23:35.332Z,35.80
2019-04-14T13:28:27.513Z,35.80
2019-04-14T13:33:19.884Z,36.60
2019-04-14T13:38:11.814Z,37.60
2019-04-14T13:43:04.122Z,36.80
2019-04-14T13:47:56.664Z,37.60
2019-04-14T13:52:49.151Z,37.30
2019-04-14T13:57:41.783Z,37.10
2019-04-14T14:02:34.358Z,36.90
2019-04-14T14:07:26.250Z,36.90
2019-04-14T14:12:17.988Z,36.10
2019-04-14T14:17:10.506Z,37.10
2019-04-14T14:22:02.181Z,37.90
2019-04-14T14:26:54.314Z,39.20
2019-04-14T14:31:46.369Z,39.70
2019-04-14T14:36:38.211Z,39.70
2019-04-14T14:41:30.019Z,39.70
2019-04-14T14:46:22.329Z,40.60
2019-04-14T14:51:14.798Z,40.50
2019-04-14T14:56:07.042Z,40.00
2019-04-14T15:00:58.942Z,39.50
2019-04-14T15:05:50.848Z,40.10
2019-04-14T15:10:42.788Z,40.90
2019-04-14T15:15:34.588Z,41.70
2019-04-14T15:20:26.414Z,41.30
2019-04-14T15:25:18.505Z,41.40
2019-04-14T15:30:10.239Z,42.30
2019-04-14T15:35:02.026Z,43.00
2019-04-14T15:39:53.784Z,42.00
2019-04-14T15:44:45.580Z,41.90
2019-04-14T15:49:37.758Z,43.10
2019-04-14T15:54:30.154Z,44.30
2019-04-14T15:59:21.827Z,44.80
2019-04-14T16:04:13.410Z,45.40
2019-04-14T16:09:05.386Z,45.90
2019-04-14T16:13:57.600Z,46.30
2019-04-14T16:18:50.192Z,47.00
2019-04-14T16:23:51.862Z,47.30
2019-04-14T16:28:41.864Z,46.80
2019-04-14T16:33:33.579Z,47.20
2019-04-14T16:38:25.306Z,47.50
2019-04-14T16:43:17.501Z,47.90
2019-04-14T16:48:09.695Z,48.60
2019-04-14T16:53:01.613Z,48.60
2019-04-14T16:57:53.661Z,48.80
2019-04-14T17:02:45.667Z,48.40
2019-04-14T17:07:37.845Z,48.80
2019-04-14T17:12:29.833Z,50.10
2019-04-14T17:17:21.581Z,50.60
2019-04-14T17:22:13.652Z,51.20
2019-04-14T17:27:05.699Z,51.10
2019-04-14T17:31:57.777Z,51.20
2019-04-14T17:36:49.683Z,52.00
2019-04-14T17:41:44.085Z,52.80
2019-04-14T17:46:36.034Z,53.40
2019-04-14T17:51:27.818Z,53.30
2019-04-14T17:56:19.756Z,54.30
2019-04-14T18:01:11.918Z,56.20
2019-04-14T18:06:03.979Z,57.50
2019-04-14T18:10:55.940Z,58.60
2019-04-14T18:15:47.846Z,57.40
2019-04-14T18:20:39.786Z,58.00
2019-04-14T18:25:31.965Z,58.70
2019-04-14T18:30:23.922Z,58.50
2019-04-14T18:35:15.964Z,59.40
2019-04-14T18:40:10.055Z,60.40
2019-04-14T18:45:01.678Z,62.00
2019-04-14T18:49:54.757Z,63.80
2019-04-14T18:54:55.768Z,64.80
2019-04-14T18:59:45.702Z,64.70
2019-04-14T19:04:37.547Z,65.30
2019-04-14T19:09:29.652Z,66.10
2019-04-14T19:14:21.697Z,67.10
2019-04-14T19:19:13.630Z,68.00
2019-04-14T19:24:05.531Z,69.00
2019-04-14T19:28:57.490Z,69.10
2019-04-14T19:33:49.641Z,70.80
2019-04-14T19:38:42.512Z,72.10
2019-04-14T19:43:34.479Z,72.70
2019-04-14T19:48:26.403Z,73.40
2019-04-14T19:53:18.199Z,73.90
2019-04-14T19:58:10.286Z,74.40
2019-04-14T20:03:02.315Z,75.40
2019-04-14T20:07:54.201Z,76.40
2019-04-14T20:12:46.203Z,78.20
2019-04-14T20:17:38.140Z,79.00
2019-04-14T20:22:30.054Z,79.90
2019-04-14T20:27:22.469Z,80.90
2019-04-14T20:32:14.457Z,82.50
2019-04-14T20:37:06.582Z,84.10
2019-04-14T20:41:58.725Z,85.10
2019-04-14T20:46:50.730Z,86.00
2019-04-14T20:51:42.722Z,86.50
2019-04-14T20:56:34.672Z,88.00
2019-04-14T21:01:26.853Z,88.10
2019-04-14T21:06:18.532Z,88.10
2019-04-14T21:11:10.503Z,88.50
